sensor_id;sensor_type;location;lat;lon;timestamp;pressure;altitude;pressure_sealevel;temperature;humidity
25944;BME280;13742;49.306;8.636;2023-06-19T00:00:23;99879.57;;;25.55;43.66
25944;BME280;13742;49.306;8.636;2023-06-19T00:01:23;99880.77;;;25.49;43.69
25944;BME280;13742;49.306;8.636;2023-06-19T00:02:23;99881.09;;;25.47;42.88
25944;BME280;13742;49.306;8.636;2023-06-19T00:03:23;99878.02;;;25.44;43.57
25944;BME280;13742;49.306;8.636;2023-06-19T00:04:23;99879.44;;;25.44;43.54
25944;BME280;13742;49.306;8.636;2023-06-19T00:05:24;99884.59;;;25.41;43.83
25944;BME280;13742;49.306;8.636;2023-06-19T00:06:23;99887.69;;;25.40;43.86
25944;BME280;13742;49.306;8.636;2023-06-19T00:07:23;99888.52;;;25.38;43.19
25944;BME280;13742;49.306;8.636;2023-06-19T00:08:23;99889.02;;;25.36;43.44
25944;BME280;13742;49.306;8.636;2023-06-19T00:09:23;99886.20;;;25.35;43.83
25944;BME280;13742;49.306;8.636;2023-06-19T00:10:23;99890.25;;;25.34;43.25
25944;BME280;13742;49.306;8.636;2023-06-19T00:11:23;99890.50;;;25.34;43.25
25944;BME280;13742;49.306;8.636;2023-06-19T00:12:23;99886.80;;;25.34;44.02
25944;BME280;13742;49.306;8.636;2023-06-19T00:13:23;99886.76;;;25.32;44.52
25944;BME280;13742;49.306;8.636;2023-06-19T00:14:23;99887.76;;;25.29;44.41
25944;BME280;13742;49.306;8.636;2023-06-19T00:15:23;99889.77;;;25.29;44.04
25944;BME280;13742;49.306;8.636;2023-06-19T00:16:25;99889.68;;;25.28;43.85
25944;BME280;13742;49.306;8.636;2023-06-19T00:17:26;99887.49;;;25.27;44.79
25944;BME280;13742;49.306;8.636;2023-06-19T00:18:23;99888.89;;;25.25;44.79
25944;BME280;13742;49.306;8.636;2023-06-19T00:19:23;99886.42;;;25.24;45.04
25944;BME280;13742;49.306;8.636;2023-06-19T00:20:23;99884.97;;;25.22;44.50
25944;BME280;13742;49.306;8.636;2023-06-19T00:21:24;99883.10;;;25.21;44.59
25944;BME280;13742;49.306;8.636;2023-06-19T00:22:24;99890.28;;;25.20;44.44
25944;BME280;13742;49.306;8.636;2023-06-19T00:23:23;99888.93;;;25.20;44.39
25944;BME280;13742;49.306;8.636;2023-06-19T00:24:23;99889.36;;;25.20;44.33
25944;BME280;13742;49.306;8.636;2023-06-19T00:25:23;99889.16;;;25.19;44.31
25944;BME280;13742;49.306;8.636;2023-06-19T00:26:23;99891.54;;;25.20;44.93
25944;BME280;13742;49.306;8.636;2023-06-19T00:27:24;99890.43;;;25.20;44.78
25944;BME280;13742;49.306;8.636;2023-06-19T00:28:23;99889.52;;;25.20;45.09
25944;BME280;13742;49.306;8.636;2023-06-19T00:29:27;99891.78;;;25.20;44.65
25944;BME280;13742;49.306;8.636;2023-06-19T00:30:23;99893.66;;;25.19;44.88
25944;BME280;13742;49.306;8.636;2023-06-19T00:31:23;99892.47;;;25.19;44.67
25944;BME280;13742;49.306;8.636;2023-06-19T00:32:23;99896.16;;;25.19;45.69
25944;BME280;13742;49.306;8.636;2023-06-19T00:33:23;99896.52;;;25.18;45.13
25944;BME280;13742;49.306;8.636;2023-06-19T00:34:24;99897.10;;;25.18;44.81
25944;BME280;13742;49.306;8.636;2023-06-19T00:35:24;99901.08;;;25.17;44.85
25944;BME280;13742;49.306;8.636;2023-06-19T00:36:25;99895.81;;;25.16;45.15
25944;BME280;13742;49.306;8.636;2023-06-19T00:37:23;99895.80;;;25.15;45.58
25944;BME280;13742;49.306;8.636;2023-06-19T00:38:23;99893.84;;;25.15;45.58
25944;BME280;13742;49.306;8.636;2023-06-19T00:39:23;99901.28;;;25.15;46.18
25944;BME280;13742;49.306;8.636;2023-06-19T00:41:23;99898.36;;;25.13;45.51
25944;BME280;13742;49.306;8.636;2023-06-19T00:42:23;99900.02;;;25.11;45.37
25944;BME280;13742;49.306;8.636;2023-06-19T00:43:23;99900.38;;;25.12;45.60
25944;BME280;13742;49.306;8.636;2023-06-19T00:44:23;99902.31;;;25.11;46.24
25944;BME280;13742;49.306;8.636;2023-06-19T00:45:26;99907.61;;;25.10;47.14
25944;BME280;13742;49.306;8.636;2023-06-19T00:46:23;99907.52;;;25.09;46.98
25944;BME280;13742;49.306;8.636;2023-06-19T00:47:24;99913.44;;;25.09;46.00
25944;BME280;13742;49.306;8.636;2023-06-19T00:48:23;99912.42;;;25.09;46.70
25944;BME280;13742;49.306;8.636;2023-06-19T00:49:23;99911.74;;;25.09;46.20
25944;BME280;13742;49.306;8.636;2023-06-19T00:50:23;99910.83;;;25.10;46.67
25944;BME280;13742;49.306;8.636;2023-06-19T00:51:23;99915.66;;;25.10;46.03
25944;BME280;13742;49.306;8.636;2023-06-19T00:52:23;99917.32;;;25.09;46.48
25944;BME280;13742;49.306;8.636;2023-06-19T00:53:24;99914.61;;;25.09;46.95
25944;BME280;13742;49.306;8.636;2023-06-19T00:54:23;99919.84;;;25.08;46.83
25944;BME280;13742;49.306;8.636;2023-06-19T00:55:23;99921.95;;;25.08;46.90
25944;BME280;13742;49.306;8.636;2023-06-19T00:56:23;99925.34;;;25.07;46.98
25944;BME280;13742;49.306;8.636;2023-06-19T00:57:23;99924.31;;;25.06;47.60
25944;BME280;13742;49.306;8.636;2023-06-19T00:58:23;99928.11;;;25.06;47.52
25944;BME280;13742;49.306;8.636;2023-06-19T00:59:23;99931.45;;;25.04;47.45
25944;BME280;13742;49.306;8.636;2023-06-19T01:00:23;99923.83;;;25.03;47.19
25944;BME280;13742;49.306;8.636;2023-06-19T01:01:23;99931.19;;;25.02;47.16
25944;BME280;13742;49.306;8.636;2023-06-19T01:02:24;99929.21;;;25.01;47.57
25944;BME280;13742;49.306;8.636;2023-06-19T01:03:23;99931.80;;;24.99;47.71
25944;BME280;13742;49.306;8.636;2023-06-19T01:04:25;99931.88;;;24.97;47.73
25944;BME280;13742;49.306;8.636;2023-06-19T01:05:23;99935.05;;;24.95;47.90
25944;BME280;13742;49.306;8.636;2023-06-19T01:06:24;99934.63;;;24.94;47.95
25944;BME280;13742;49.306;8.636;2023-06-19T01:07:27;99939.33;;;24.94;47.70
25944;BME280;13742;49.306;8.636;2023-06-19T01:08:43;99940.70;;;24.93;47.62
25944;BME280;13742;49.306;8.636;2023-06-19T01:09:23;99937.89;;;24.92;47.76
25944;BME280;13742;49.306;8.636;2023-06-19T01:10:27;99943.39;;;24.92;47.90
25944;BME280;13742;49.306;8.636;2023-06-19T01:11:24;99946.08;;;24.91;47.78
25944;BME280;13742;49.306;8.636;2023-06-19T01:14:28;99949.81;;;24.88;47.98
25944;BME280;13742;49.306;8.636;2023-06-19T01:15:23;99942.70;;;24.84;47.90
25944;BME280;13742;49.306;8.636;2023-06-19T01:16:23;99943.09;;;24.83;48.36
25944;BME280;13742;49.306;8.636;2023-06-19T01:17:23;99943.88;;;24.79;48.19
25944;BME280;13742;49.306;8.636;2023-06-19T01:18:23;99948.25;;;24.78;48.23
25944;BME280;13742;49.306;8.636;2023-06-19T01:19:23;99948.84;;;24.78;47.98
25944;BME280;13742;49.306;8.636;2023-06-19T01:20:23;99947.72;;;24.76;48.74
25944;BME280;13742;49.306;8.636;2023-06-19T01:21:23;99948.81;;;24.75;48.83
25944;BME280;13742;49.306;8.636;2023-06-19T01:23:23;99953.02;;;24.75;48.38
25944;BME280;13742;49.306;8.636;2023-06-19T01:24:23;99956.04;;;24.74;48.43
25944;BME280;13742;49.306;8.636;2023-06-19T01:25:24;99957.61;;;24.69;49.12
25944;BME280;13742;49.306;8.636;2023-06-19T01:26:26;99961.05;;;24.68;49.14
25944;BME280;13742;49.306;8.636;2023-06-19T01:27:23;99964.64;;;24.67;48.76
25944;BME280;13742;49.306;8.636;2023-06-19T01:28:23;99966.88;;;24.63;49.21
25944;BME280;13742;49.306;8.636;2023-06-19T01:29:23;99969.13;;;24.61;49.16
25944;BME280;13742;49.306;8.636;2023-06-19T01:30:23;99968.56;;;24.63;49.02
25944;BME280;13742;49.306;8.636;2023-06-19T01:31:25;99973.23;;;24.64;48.89
25944;BME280;13742;49.306;8.636;2023-06-19T01:32:25;99969.98;;;24.61;48.91
25944;BME280;13742;49.306;8.636;2023-06-19T01:33:26;99970.30;;;24.59;49.02
25944;BME280;13742;49.306;8.636;2023-06-19T01:34:23;99973.89;;;24.58;49.27
25944;BME280;13742;49.306;8.636;2023-06-19T01:35:23;99976.31;;;24.56;49.43
25944;BME280;13742;49.306;8.636;2023-06-19T01:36:23;99972.00;;;24.56;49.62
25944;BME280;13742;49.306;8.636;2023-06-19T01:37:23;99976.08;;;24.43;50.25
25944;BME280;13742;49.306;8.636;2023-06-19T01:38:25;99978.22;;;24.40;50.39
25944;BME280;13742;49.306;8.636;2023-06-19T01:39:23;99982.30;;;24.42;50.11
25944;BME280;13742;49.306;8.636;2023-06-19T01:40:25;99990.09;;;24.43;50.14
25944;BME280;13742;49.306;8.636;2023-06-19T01:41:23;99991.86;;;24.42;50.56
25944;BME280;13742;49.306;8.636;2023-06-19T01:42:24;99998.98;;;24.40;50.83
25944;BME280;13742;49.306;8.636;2023-06-19T01:43:23;99999.75;;;24.40;50.70
25944;BME280;13742;49.306;8.636;2023-06-19T01:44:23;99997.22;;;24.40;50.78
25944;BME280;13742;49.306;8.636;2023-06-19T01:45:23;99996.98;;;24.42;50.88
25944;BME280;13742;49.306;8.636;2023-06-19T01:46:23;99997.01;;;24.43;50.76
25944;BME280;13742;49.306;8.636;2023-06-19T01:47:23;99996.88;;;24.44;50.61
25944;BME280;13742;49.306;8.636;2023-06-19T01:48:23;100003.98;;;24.46;50.66
25944;BME280;13742;49.306;8.636;2023-06-19T01:49:23;100002.97;;;24.42;51.12
25944;BME280;13742;49.306;8.636;2023-06-19T01:50:23;100004.42;;;24.36;51.26
25944;BME280;13742;49.306;8.636;2023-06-19T01:51:23;100003.34;;;24.38;51.08
25944;BME280;13742;49.306;8.636;2023-06-19T01:52:23;100003.75;;;24.38;50.90
25944;BME280;13742;49.306;8.636;2023-06-19T01:53:23;100003.50;;;24.37;51.38
25944;BME280;13742;49.306;8.636;2023-06-19T01:54:23;100000.77;;;24.40;50.91
25944;BME280;13742;49.306;8.636;2023-06-19T01:55:23;100003.13;;;24.41;50.69
25944;BME280;13742;49.306;8.636;2023-06-19T01:56:24;100002.28;;;24.41;50.82
25944;BME280;13742;49.306;8.636;2023-06-19T01:57:23;100003.46;;;24.41;51.02
25944;BME280;13742;49.306;8.636;2023-06-19T01:58:23;100003.14;;;24.42;50.49
25944;BME280;13742;49.306;8.636;2023-06-19T01:59:23;100000.37;;;24.42;50.57
25944;BME280;13742;49.306;8.636;2023-06-19T02:00:23;99999.88;;;24.43;50.27
25944;BME280;13742;49.306;8.636;2023-06-19T02:01:23;100001.09;;;24.45;50.66
25944;BME280;13742;49.306;8.636;2023-06-19T02:02:23;100003.28;;;24.45;50.31
25944;BME280;13742;49.306;8.636;2023-06-19T02:03:23;100001.10;;;24.46;50.33
25944;BME280;13742;49.306;8.636;2023-06-19T02:04:23;100005.47;;;24.48;50.29
25944;BME280;13742;49.306;8.636;2023-06-19T02:05:23;100002.86;;;24.48;49.82
25944;BME280;13742;49.306;8.636;2023-06-19T02:06:23;100006.09;;;24.50;50.19
25944;BME280;13742;49.306;8.636;2023-06-19T02:07:23;100008.86;;;24.49;50.48
25944;BME280;13742;49.306;8.636;2023-06-19T02:08:23;100013.26;;;24.46;50.00
25944;BME280;13742;49.306;8.636;2023-06-19T02:09:23;100010.48;;;24.47;50.72
25944;BME280;13742;49.306;8.636;2023-06-19T02:10:23;100009.97;;;24.45;50.90
25944;BME280;13742;49.306;8.636;2023-06-19T02:11:23;100010.07;;;24.47;50.97
25944;BME280;13742;49.306;8.636;2023-06-19T02:12:23;100004.45;;;24.48;51.19
25944;BME280;13742;49.306;8.636;2023-06-19T02:13:23;100005.98;;;24.48;50.80
25944;BME280;13742;49.306;8.636;2023-06-19T02:14:23;100010.06;;;24.49;51.76
25944;BME280;13742;49.306;8.636;2023-06-19T02:15:23;100003.88;;;24.48;52.24
25944;BME280;13742;49.306;8.636;2023-06-19T02:16:23;100005.45;;;24.43;52.04
25944;BME280;13742;49.306;8.636;2023-06-19T02:17:23;100009.57;;;24.43;51.86
25944;BME280;13742;49.306;8.636;2023-06-19T02:18:23;100007.18;;;24.40;52.54
25944;BME280;13742;49.306;8.636;2023-06-19T02:19:23;100011.67;;;24.41;52.68
25944;BME280;13742;49.306;8.636;2023-06-19T02:20:24;100010.48;;;24.36;53.22
25944;BME280;13742;49.306;8.636;2023-06-19T02:21:23;100008.88;;;24.36;53.14
25944;BME280;13742;49.306;8.636;2023-06-19T02:22:23;100013.67;;;24.34;53.47
25944;BME280;13742;49.306;8.636;2023-06-19T02:23:23;100016.87;;;24.30;53.73
25944;BME280;13742;49.306;8.636;2023-06-19T02:24:23;100021.25;;;24.30;53.89
25944;BME280;13742;49.306;8.636;2023-06-19T02:25:23;100020.42;;;24.30;54.32
25944;BME280;13742;49.306;8.636;2023-06-19T02:26:23;100017.74;;;24.22;55.47
25944;BME280;13742;49.306;8.636;2023-06-19T02:27:23;100014.92;;;24.10;55.99
25944;BME280;13742;49.306;8.636;2023-06-19T02:28:23;100015.97;;;24.12;55.89
25944;BME280;13742;49.306;8.636;2023-06-19T02:29:23;100013.31;;;24.14;55.60
25944;BME280;13742;49.306;8.636;2023-06-19T02:30:23;100013.72;;;24.14;55.44
25944;BME280;13742;49.306;8.636;2023-06-19T02:31:23;100015.13;;;24.12;56.63
25944;BME280;13742;49.306;8.636;2023-06-19T02:32:23;100019.82;;;24.00;57.03
25944;BME280;13742;49.306;8.636;2023-06-19T02:33:23;100014.38;;;23.97;57.34
25944;BME280;13742;49.306;8.636;2023-06-19T02:34:24;100017.08;;;23.98;57.64
25944;BME280;13742;49.306;8.636;2023-06-19T02:35:23;100015.23;;;23.98;57.30
25944;BME280;13742;49.306;8.636;2023-06-19T02:36:23;100016.32;;;23.93;58.30
25944;BME280;13742;49.306;8.636;2023-06-19T02:37:23;100013.36;;;23.93;58.63
25944;BME280;13742;49.306;8.636;2023-06-19T02:38:23;100016.54;;;23.92;58.28
25944;BME280;13742;49.306;8.636;2023-06-19T02:39:23;100020.66;;;23.89;59.04
25944;BME280;13742;49.306;8.636;2023-06-19T02:40:23;100016.61;;;23.89;58.41
25944;BME280;13742;49.306;8.636;2023-06-19T02:41:23;100013.33;;;23.90;58.74
25944;BME280;13742;49.306;8.636;2023-06-19T02:42:23;100010.27;;;23.89;58.09
25944;BME280;13742;49.306;8.636;2023-06-19T02:43:23;100008.31;;;23.89;57.80
25944;BME280;13742;49.306;8.636;2023-06-19T02:44:23;100008.34;;;23.89;58.87
25944;BME280;13742;49.306;8.636;2023-06-19T02:45:23;100005.44;;;23.88;58.98
25944;BME280;13742;49.306;8.636;2023-06-19T02:46:23;100006.16;;;23.87;58.38
25944;BME280;13742;49.306;8.636;2023-06-19T02:47:23;100000.23;;;23.86;58.28
25944;BME280;13742;49.306;8.636;2023-06-19T02:48:23;100002.87;;;23.86;58.56
25944;BME280;13742;49.306;8.636;2023-06-19T02:49:23;100016.58;;;23.84;58.08
25944;BME280;13742;49.306;8.636;2023-06-19T02:50:23;100041.92;;;23.78;60.58
25944;BME280;13742;49.306;8.636;2023-06-19T02:51:23;100046.82;;;23.62;63.19
25944;BME280;13742;49.306;8.636;2023-06-19T02:52:23;100025.74;;;23.63;61.44
25944;BME280;13742;49.306;8.636;2023-06-19T02:53:23;100026.13;;;23.64;62.46
25944;BME280;13742;49.306;8.636;2023-06-19T02:54:23;100052.00;;;23.60;63.54
25944;BME280;13742;49.306;8.636;2023-06-19T02:55:23;100061.63;;;23.49;62.49
25944;BME280;13742;49.306;8.636;2023-06-19T02:56:24;100062.91;;;23.46;62.44
25944;BME280;13742;49.306;8.636;2023-06-19T02:57:23;100059.29;;;23.46;62.85
25944;BME280;13742;49.306;8.636;2023-06-19T02:58:23;100055.98;;;23.46;63.86
25944;BME280;13742;49.306;8.636;2023-06-19T02:59:23;100057.03;;;23.43;63.81
25944;BME280;13742;49.306;8.636;2023-06-19T03:00:23;100068.55;;;23.42;63.31
25944;BME280;13742;49.306;8.636;2023-06-19T03:01:23;100076.34;;;23.31;63.54
25944;BME280;13742;49.306;8.636;2023-06-19T03:02:23;100085.51;;;23.32;63.24
25944;BME280;13742;49.306;8.636;2023-06-19T03:03:23;100091.02;;;23.30;64.51
25944;BME280;13742;49.306;8.636;2023-06-19T03:04:23;100089.45;;;23.23;64.89
25944;BME280;13742;49.306;8.636;2023-06-19T03:05:23;100089.95;;;23.26;63.99
25944;BME280;13742;49.306;8.636;2023-06-19T03:06:23;100090.55;;;23.27;64.65
25944;BME280;13742;49.306;8.636;2023-06-19T03:07:25;100093.38;;;23.18;66.06
25944;BME280;13742;49.306;8.636;2023-06-19T03:08:24;100093.08;;;23.16;65.35
25944;BME280;13742;49.306;8.636;2023-06-19T03:09:23;100093.23;;;23.19;65.04
25944;BME280;13742;49.306;8.636;2023-06-19T03:10:23;100094.33;;;23.19;65.05
25944;BME280;13742;49.306;8.636;2023-06-19T03:11:23;100094.09;;;23.20;65.98
25944;BME280;13742;49.306;8.636;2023-06-19T03:12:23;100088.44;;;23.19;65.42
25944;BME280;13742;49.306;8.636;2023-06-19T03:13:23;100088.94;;;23.19;65.58
25944;BME280;13742;49.306;8.636;2023-06-19T03:14:23;100092.89;;;23.19;65.02
25944;BME280;13742;49.306;8.636;2023-06-19T03:15:23;100095.30;;;23.17;65.18
25944;BME280;13742;49.306;8.636;2023-06-19T03:16:23;100095.88;;;23.13;66.52
25944;BME280;13742;49.306;8.636;2023-06-19T03:17:23;100093.92;;;23.02;66.98
25944;BME280;13742;49.306;8.636;2023-06-19T03:18:23;100097.05;;;23.04;66.26
25944;BME280;13742;49.306;8.636;2023-06-19T03:19:23;100097.10;;;23.05;65.59
25944;BME280;13742;49.306;8.636;2023-06-19T03:20:23;100087.79;;;23.06;66.33
25944;BME280;13742;49.306;8.636;2023-06-19T03:21:23;100087.45;;;23.06;66.12
25944;BME280;13742;49.306;8.636;2023-06-19T03:22:23;100085.70;;;23.07;66.84
25944;BME280;13742;49.306;8.636;2023-06-19T03:23:23;100087.34;;;23.07;66.80
25944;BME280;13742;49.306;8.636;2023-06-19T03:24:23;100082.23;;;23.07;66.53
25944;BME280;13742;49.306;8.636;2023-06-19T03:25:23;100084.55;;;23.04;66.53
25944;BME280;13742;49.306;8.636;2023-06-19T03:26:24;100085.67;;;23.03;67.87
25944;BME280;13742;49.306;8.636;2023-06-19T03:27:26;100084.42;;;23.03;66.91
25944;BME280;13742;49.306;8.636;2023-06-19T03:28:23;100082.76;;;23.01;65.97
25944;BME280;13742;49.306;8.636;2023-06-19T03:29:23;100088.27;;;23.02;66.00
25944;BME280;13742;49.306;8.636;2023-06-19T03:30:23;100092.53;;;23.00;65.73
25944;BME280;13742;49.306;8.636;2023-06-19T03:31:23;100095.84;;;23.02;67.36
25944;BME280;13742;49.306;8.636;2023-06-19T03:32:23;100098.86;;;22.97;67.33
25944;BME280;13742;49.306;8.636;2023-06-19T03:33:23;100096.59;;;22.94;67.69
25944;BME280;13742;49.306;8.636;2023-06-19T03:34:23;100100.33;;;22.88;69.20
25944;BME280;13742;49.306;8.636;2023-06-19T03:35:23;100099.13;;;22.87;69.41
25944;BME280;13742;49.306;8.636;2023-06-19T03:36:23;100097.12;;;22.81;69.29
25944;BME280;13742;49.306;8.636;2023-06-19T03:37:23;100100.23;;;22.74;69.45
25944;BME280;13742;49.306;8.636;2023-06-19T03:38:23;100098.34;;;22.76;67.85
25944;BME280;13742;49.306;8.636;2023-06-19T03:39:23;100104.26;;;22.77;67.32
25944;BME280;13742;49.306;8.636;2023-06-19T03:40:23;100114.98;;;22.79;68.94
25944;BME280;13742;49.306;8.636;2023-06-19T03:41:23;100119.00;;;22.78;68.57
25944;BME280;13742;49.306;8.636;2023-06-19T03:42:23;100119.23;;;22.74;68.58
25944;BME280;13742;49.306;8.636;2023-06-19T03:43:23;100119.28;;;22.72;69.47
25944;BME280;13742;49.306;8.636;2023-06-19T03:44:23;100122.80;;;22.70;72.11
25944;BME280;13742;49.306;8.636;2023-06-19T03:45:23;100119.72;;;22.59;70.88
25944;BME280;13742;49.306;8.636;2023-06-19T03:46:23;100121.97;;;22.55;71.44
25944;BME280;13742;49.306;8.636;2023-06-19T03:47:23;100121.89;;;22.61;70.29
25944;BME280;13742;49.306;8.636;2023-06-19T03:48:23;100121.50;;;22.60;71.29
25944;BME280;13742;49.306;8.636;2023-06-19T03:49:23;100124.92;;;22.61;70.82
25944;BME280;13742;49.306;8.636;2023-06-19T03:50:23;100125.95;;;22.63;69.95
25944;BME280;13742;49.306;8.636;2023-06-19T03:51:23;100124.64;;;22.58;69.31
25944;BME280;13742;49.306;8.636;2023-06-19T03:52:23;100123.75;;;22.59;69.11
25944;BME280;13742;49.306;8.636;2023-06-19T03:53:23;100125.66;;;22.61;68.73
25944;BME280;13742;49.306;8.636;2023-06-19T03:54:23;100126.79;;;22.63;68.54
25944;BME280;13742;49.306;8.636;2023-06-19T03:55:23;100129.66;;;22.66;69.23
25944;BME280;13742;49.306;8.636;2023-06-19T03:56:23;100126.77;;;22.65;69.79
25944;BME280;13742;49.306;8.636;2023-06-19T03:57:23;100127.91;;;22.67;69.35
25944;BME280;13742;49.306;8.636;2023-06-19T03:58:23;100126.35;;;22.68;68.37
25944;BME280;13742;49.306;8.636;2023-06-19T03:59:23;100125.48;;;22.67;68.82
25944;BME280;13742;49.306;8.636;2023-06-19T04:00:23;100124.13;;;22.67;68.25
25944;BME280;13742;49.306;8.636;2023-06-19T04:01:23;100123.14;;;22.68;68.31
25944;BME280;13742;49.306;8.636;2023-06-19T04:02:23;100130.17;;;22.69;68.67
25944;BME280;13742;49.306;8.636;2023-06-19T04:03:23;100130.98;;;22.69;68.14
25944;BME280;13742;49.306;8.636;2023-06-19T04:04:24;100130.15;;;22.68;67.43
25944;BME280;13742;49.306;8.636;2023-06-19T04:05:23;100132.20;;;22.69;67.49
25944;BME280;13742;49.306;8.636;2023-06-19T04:06:23;100135.08;;;22.70;70.03
25944;BME280;13742;49.306;8.636;2023-06-19T04:07:23;100133.73;;;22.71;68.40
25944;BME280;13742;49.306;8.636;2023-06-19T04:08:23;100138.68;;;22.67;70.12
25944;BME280;13742;49.306;8.636;2023-06-19T04:09:23;100140.02;;;22.69;69.37
25944;BME280;13742;49.306;8.636;2023-06-19T04:10:23;100138.15;;;22.66;70.40
25944;BME280;13742;49.306;8.636;2023-06-19T04:11:23;100136.69;;;22.68;68.37
25944;BME280;13742;49.306;8.636;2023-06-19T04:12:23;100139.34;;;22.69;68.24
25944;BME280;13742;49.306;8.636;2023-06-19T04:13:24;100133.30;;;22.71;68.14
25944;BME280;13742;49.306;8.636;2023-06-19T04:14:23;100133.02;;;22.73;68.74
25944;BME280;13742;49.306;8.636;2023-06-19T04:15:23;100138.67;;;22.73;67.95
25944;BME280;13742;49.306;8.636;2023-06-19T04:16:23;100136.00;;;22.74;67.45
25944;BME280;13742;49.306;8.636;2023-06-19T04:17:23;100138.48;;;22.76;69.48
25944;BME280;13742;49.306;8.636;2023-06-19T04:18:23;100138.44;;;22.77;68.57
25944;BME280;13742;49.306;8.636;2023-06-19T04:19:23;100140.69;;;22.77;68.53
25944;BME280;13742;49.306;8.636;2023-06-19T04:20:23;100134.77;;;22.77;67.42
25944;BME280;13742;49.306;8.636;2023-06-19T04:21:23;100137.52;;;22.78;67.39
25944;BME280;13742;49.306;8.636;2023-06-19T04:22:23;100139.81;;;22.78;68.56
25944;BME280;13742;49.306;8.636;2023-06-19T04:23:23;100140.89;;;22.77;67.07
25944;BME280;13742;49.306;8.636;2023-06-19T04:24:23;100140.66;;;22.78;68.91
25944;BME280;13742;49.306;8.636;2023-06-19T04:25:23;100140.05;;;22.55;70.07
25944;BME280;13742;49.306;8.636;2023-06-19T04:26:24;100141.56;;;22.64;68.26
25944;BME280;13742;49.306;8.636;2023-06-19T04:27:23;100148.30;;;22.68;68.09
25944;BME280;13742;49.306;8.636;2023-06-19T04:28:23;100148.64;;;22.68;67.97
25944;BME280;13742;49.306;8.636;2023-06-19T04:29:23;100152.10;;;22.68;69.02
25944;BME280;13742;49.306;8.636;2023-06-19T04:30:23;100153.41;;;22.69;69.19
25944;BME280;13742;49.306;8.636;2023-06-19T04:31:23;100153.83;;;22.71;68.42
25944;BME280;13742;49.306;8.636;2023-06-19T04:32:23;100153.58;;;22.69;68.58
25944;BME280;13742;49.306;8.636;2023-06-19T04:33:25;100153.34;;;22.70;67.86
25944;BME280;13742;49.306;8.636;2023-06-19T04:34:23;100154.44;;;22.70;67.61
25944;BME280;13742;49.306;8.636;2023-06-19T04:35:24;100155.55;;;22.71;67.74
25944;BME280;13742;49.306;8.636;2023-06-19T04:36:23;100154.56;;;22.72;69.20
25944;BME280;13742;49.306;8.636;2023-06-19T04:37:23;100157.31;;;22.65;69.95
25944;BME280;13742;49.306;8.636;2023-06-19T04:38:23;100155.44;;;22.54;69.91
25944;BME280;13742;49.306;8.636;2023-06-19T04:39:23;100153.28;;;22.58;69.74
25944;BME280;13742;49.306;8.636;2023-06-19T04:40:25;100155.27;;;22.54;71.23
25944;BME280;13742;49.306;8.636;2023-06-19T04:41:23;100146.93;;;22.57;70.77
25944;BME280;13742;49.306;8.636;2023-06-19T04:42:24;100158.03;;;22.41;70.71
25944;BME280;13742;49.306;8.636;2023-06-19T04:43:24;100157.18;;;22.44;69.96
25944;BME280;13742;49.306;8.636;2023-06-19T04:44:23;100155.14;;;22.47;70.10
25944;BME280;13742;49.306;8.636;2023-06-19T04:45:23;100156.20;;;22.49;69.19
25944;BME280;13742;49.306;8.636;2023-06-19T04:46:23;100154.44;;;22.51;69.60
25944;BME280;13742;49.306;8.636;2023-06-19T04:47:23;100154.92;;;22.50;69.07
25944;BME280;13742;49.306;8.636;2023-06-19T04:48:25;100158.80;;;22.38;70.27
25944;BME280;13742;49.306;8.636;2023-06-19T04:49:23;100156.78;;;22.42;70.01
25944;BME280;13742;49.306;8.636;2023-06-19T04:50:23;100157.14;;;22.45;69.87
25944;BME280;13742;49.306;8.636;2023-06-19T04:55:25;100158.66;;;22.45;70.79
25944;BME280;13742;49.306;8.636;2023-06-19T04:56:23;100158.69;;;22.46;70.01
25944;BME280;13742;49.306;8.636;2023-06-19T05:02:23;100163.13;;;22.45;68.69
25944;BME280;13742;49.306;8.636;2023-06-19T05:03:23;100166.13;;;22.49;68.67
25944;BME280;13742;49.306;8.636;2023-06-19T05:04:23;100167.79;;;22.48;68.75
25944;BME280;13742;49.306;8.636;2023-06-19T05:05:23;100167.02;;;22.47;68.97
25944;BME280;13742;49.306;8.636;2023-06-19T05:06:23;100164.86;;;22.47;68.07
25944;BME280;13742;49.306;8.636;2023-06-19T05:07:23;100171.41;;;22.51;68.74
25944;BME280;13742;49.306;8.636;2023-06-19T05:08:23;100170.59;;;22.52;68.65
25944;BME280;13742;49.306;8.636;2023-06-19T05:09:23;100170.24;;;22.54;69.20
25944;BME280;13742;49.306;8.636;2023-06-19T05:10:23;100169.66;;;22.57;68.76
25944;BME280;13742;49.306;8.636;2023-06-19T05:11:23;100168.60;;;22.58;68.51
25944;BME280;13742;49.306;8.636;2023-06-19T05:12:23;100168.96;;;22.60;67.81
25944;BME280;13742;49.306;8.636;2023-06-19T05:13:23;100171.19;;;22.64;67.70
25944;BME280;13742;49.306;8.636;2023-06-19T05:14:23;100171.41;;;22.60;68.35
25944;BME280;13742;49.306;8.636;2023-06-19T05:15:23;100168.14;;;22.57;68.07
25944;BME280;13742;49.306;8.636;2023-06-19T05:16:24;100167.45;;;22.60;67.90
25944;BME280;13742;49.306;8.636;2023-06-19T05:17:23;100164.36;;;22.64;67.55
25944;BME280;13742;49.306;8.636;2023-06-19T05:18:23;100168.42;;;22.65;67.98
25944;BME280;13742;49.306;8.636;2023-06-19T05:19:23;100163.83;;;22.66;68.43
25944;BME280;13742;49.306;8.636;2023-06-19T05:20:23;100164.73;;;22.68;68.88
25944;BME280;13742;49.306;8.636;2023-06-19T05:21:23;100167.45;;;22.69;68.37
25944;BME280;13742;49.306;8.636;2023-06-19T05:22:24;100162.63;;;22.69;67.98
25944;BME280;13742;49.306;8.636;2023-06-19T05:23:23;100166.75;;;22.68;67.54
25944;BME280;13742;49.306;8.636;2023-06-19T05:24:23;100164.07;;;22.66;67.59
25944;BME280;13742;49.306;8.636;2023-06-19T05:25:23;100164.41;;;22.69;67.06
25944;BME280;13742;49.306;8.636;2023-06-19T05:26:23;100164.27;;;22.71;67.67
25944;BME280;13742;49.306;8.636;2023-06-19T05:27:23;100163.92;;;22.63;67.83